sensor_id;sensor_type;location;lat;lon;timestamp;P1;durP1;ratioP1;P2;durP2;ratioP2
62863;SDS011;48954;59.950;11.014;2024-03-08T00:00:49;6.30;;;3.00;;
62863;SDS011;48954;59.950;11.014;2024-03-08T00:03:40;6.40;;;2.70;;
62863;SDS011;48954;59.950;11.014;2024-03-08T00:06:08;10.00;;;3.70;;
62863;SDS011;48954;59.950;11.014;2024-03-08T00:08:41;6.60;;;3.30;;
62863;SDS011;48954;59.950;11.014;2024-03-08T00:11:13;7.70;;;3.70;;
62863;SDS011;48954;59.950;11.014;2024-03-08T00:13:53;5.50;;;3.20;;
62863;SDS011;48954;59.950;11.014;2024-03-08T00:16:49;6.50;;;3.00;;
62863;SDS011;48954;59.950;11.014;2024-03-08T00:20:10;7.00;;;2.80;;
62863;SDS011;48954;59.950;11.014;2024-03-08T00:23:12;6.40;;;2.80;;
62863;SDS011;48954;59.950;11.014;2024-03-08T00:26:36;7.10;;;3.30;;
62863;SDS011;48954;59.950;11.014;2024-03-08T00:29:32;9.10;;;2.80;;
62863;SDS011;48954;59.950;11.014;2024-03-08T00:32:20;6.30;;;3.00;;
62863;SDS011;48954;59.950;11.014;2024-03-08T00:34:51;10.20;;;3.80;;
62863;SDS011;48954;59.950;11.014;2024-03-08T00:37:21;8.70;;;3.10;;
62863;SDS011;48954;59.950;11.014;2024-03-08T00:40:19;9.60;;;3.80;;
62863;SDS011;48954;59.950;11.014;2024-03-08T00:43:01;5.70;;;3.10;;
62863;SDS011;48954;59.950;11.014;2024-03-08T00:45:50;6.30;;;2.70;;
62863;SDS011;48954;59.950;11.014;2024-03-08T00:48:51;8.70;;;2.50;;
62863;SDS011;48954;59.950;11.014;2024-03-08T00:51:28;6.70;;;2.90;;
62863;SDS011;48954;59.950;11.014;2024-03-08T00:54:08;7.20;;;2.70;;
62863;SDS011;48954;59.950;11.014;2024-03-08T00:56:35;5.70;;;2.70;;
62863;SDS011;48954;59.950;11.014;2024-03-08T00:59:02;7.70;;;2.90;;
62863;SDS011;48954;59.950;11.014;2024-03-08T01:01:29;6.70;;;2.60;;
62863;SDS011;48954;59.950;11.014;2024-03-08T01:04:05;8.00;;;3.20;;
62863;SDS011;48954;59.950;11.014;2024-03-08T01:06:51;7.00;;;3.00;;
62863;SDS011;48954;59.950;11.014;2024-03-08T01:09:32;6.40;;;2.50;;
62863;SDS011;48954;59.950;11.014;2024-03-08T01:12:11;6.40;;;2.90;;
62863;SDS011;48954;59.950;11.014;2024-03-08T01:14:47;6.30;;;2.70;;
62863;SDS011;48954;59.950;11.014;2024-03-08T01:17:34;7.00;;;3.50;;
62863;SDS011;48954;59.950;11.014;2024-03-08T01:20:05;5.90;;;2.30;;
62863;SDS011;48954;59.950;11.014;2024-03-08T01:22:47;4.60;;;2.50;;
62863;SDS011;48954;59.950;11.014;2024-03-08T01:25:30;3.40;;;1.90;;
62863;SDS011;48954;59.950;11.014;2024-03-08T01:28:11;6.20;;;2.70;;
62863;SDS011;48954;59.950;11.014;2024-03-08T01:30:41;4.70;;;2.40;;
62863;SDS011;48954;59.950;11.014;2024-03-08T01:40:12;6.70;;;2.50;;
62863;SDS011;48954;59.950;11.014;2024-03-08T01:42:50;4.40;;;2.20;;
62863;SDS011;48954;59.950;11.014;2024-03-08T01:45:31;7.10;;;2.70;;
62863;SDS011;48954;59.950;11.014;2024-03-08T01:48:00;6.50;;;3.10;;
62863;SDS011;48954;59.950;11.014;2024-03-08T01:50:40;5.80;;;2.60;;
62863;SDS011;48954;59.950;11.014;2024-03-08T01:53:17;8.40;;;2.70;;
62863;SDS011;48954;59.950;11.014;2024-03-08T01:56:00;6.00;;;2.70;;
62863;SDS011;48954;59.950;11.014;2024-03-08T01:58:34;5.70;;;2.80;;
62863;SDS011;48954;59.950;11.014;2024-03-08T02:01:07;7.00;;;2.90;;
62863;SDS011;48954;59.950;11.014;2024-03-08T02:03:49;6.70;;;2.60;;
62863;SDS011;48954;59.950;11.014;2024-03-08T02:06:24;5.90;;;3.00;;
62863;SDS011;48954;59.950;11.014;2024-03-08T02:09:07;5.70;;;2.70;;
62863;SDS011;48954;59.950;11.014;2024-03-08T02:11:49;6.00;;;2.90;;
62863;SDS011;48954;59.950;11.014;2024-03-08T02:14:29;7.40;;;3.00;;
62863;SDS011;48954;59.950;11.014;2024-03-08T02:17:07;7.80;;;2.80;;
62863;SDS011;48954;59.950;11.014;2024-03-08T02:22:17;5.20;;;2.40;;
62863;SDS011;48954;59.950;11.014;2024-03-08T02:24:44;6.40;;;3.30;;
62863;SDS011;48954;59.950;11.014;2024-03-08T02:27:26;5.00;;;2.40;;
62863;SDS011;48954;59.950;11.014;2024-03-08T02:30:08;8.10;;;2.50;;
62863;SDS011;48954;59.950;11.014;2024-03-08T02:32:52;5.90;;;2.80;;
62863;SDS011;48954;59.950;11.014;2024-03-08T02:35:21;5.80;;;2.00;;
62863;SDS011;48954;59.950;11.014;2024-03-08T02:37:49;6.80;;;2.50;;
62863;SDS011;48954;59.950;11.014;2024-03-08T02:40:17;4.20;;;2.30;;
62863;SDS011;48954;59.950;11.014;2024-03-08T02:42:44;6.30;;;2.40;;
62863;SDS011;48954;59.950;11.014;2024-03-08T02:45:14;5.70;;;2.50;;
62863;SDS011;48954;59.950;11.014;2024-03-08T02:47:40;5.70;;;2.40;;
62863;SDS011;48954;59.950;11.014;2024-03-08T02:50:07;5.50;;;2.80;;
62863;SDS011;48954;59.950;11.014;2024-03-08T02:52:39;5.90;;;3.00;;
62863;SDS011;48954;59.950;11.014;2024-03-08T02:55:06;5.40;;;2.90;;
62863;SDS011;48954;59.950;11.014;2024-03-08T02:57:34;7.10;;;2.80;;
62863;SDS011;48954;59.950;11.014;2024-03-08T03:00:01;7.10;;;2.80;;
62863;SDS011;48954;59.950;11.014;2024-03-08T03:02:27;6.10;;;2.50;;
62863;SDS011;48954;59.950;11.014;2024-03-08T03:04:54;7.20;;;2.90;;
62863;SDS011;48954;59.950;11.014;2024-03-08T03:07:34;6.90;;;2.80;;
62863;SDS011;48954;59.950;11.014;2024-03-08T03:10:01;6.30;;;2.60;;
62863;SDS011;48954;59.950;11.014;2024-03-08T03:12:36;6.90;;;2.90;;
62863;SDS011;48954;59.950;11.014;2024-03-08T03:15:02;6.10;;;2.50;;
62863;SDS011;48954;59.950;11.014;2024-03-08T03:17:29;7.00;;;2.90;;
62863;SDS011;48954;59.950;11.014;2024-03-08T03:19:56;5.20;;;2.70;;
62863;SDS011;48954;59.950;11.014;2024-03-08T03:22:24;5.80;;;2.70;;
62863;SDS011;48954;59.950;11.014;2024-03-08T03:25:04;7.00;;;2.70;;
62863;SDS011;48954;59.950;11.014;2024-03-08T03:27:33;6.60;;;2.50;;
62863;SDS011;48954;59.950;11.014;2024-03-08T03:30:00;4.80;;;2.40;;
62863;SDS011;48954;59.950;11.014;2024-03-08T03:32:27;5.90;;;2.30;;
62863;SDS011;48954;59.950;11.014;2024-03-08T03:34:54;6.70;;;2.60;;
62863;SDS011;48954;59.950;11.014;2024-03-08T03:37:20;4.70;;;2.30;;
62863;SDS011;48954;59.950;11.014;2024-03-08T03:39:46;9.00;;;3.00;;
62863;SDS011;48954;59.950;11.014;2024-03-08T03:42:17;4.90;;;2.10;;
62863;SDS011;48954;59.950;11.014;2024-03-08T03:44:45;5.20;;;2.40;;
62863;SDS011;48954;59.950;11.014;2024-03-08T03:47:13;5.80;;;2.40;;
62863;SDS011;48954;59.950;11.014;2024-03-08T03:49:43;5.90;;;2.30;;
62863;SDS011;48954;59.950;11.014;2024-03-08T03:52:11;5.10;;;2.30;;
62863;SDS011;48954;59.950;11.014;2024-03-08T03:54:38;6.20;;;2.60;;
62863;SDS011;48954;59.950;11.014;2024-03-08T03:57:05;7.10;;;2.90;;
62863;SDS011;48954;59.950;11.014;2024-03-08T03:59:33;6.80;;;2.50;;
62863;SDS011;48954;59.950;11.014;2024-03-08T04:01:59;5.00;;;2.10;;
62863;SDS011;48954;59.950;11.014;2024-03-08T04:04:25;7.00;;;2.80;;
62863;SDS011;48954;59.950;11.014;2024-03-08T04:06:52;5.80;;;2.30;;
62863;SDS011;48954;59.950;11.014;2024-03-08T04:09:18;6.70;;;2.20;;
62863;SDS011;48954;59.950;11.014;2024-03-08T04:11:45;4.80;;;2.30;;
62863;SDS011;48954;59.950;11.014;2024-03-08T04:14:12;6.70;;;2.90;;
62863;SDS011;48954;59.950;11.014;2024-03-08T04:16:39;6.00;;;2.60;;
62863;SDS011;48954;59.950;11.014;2024-03-08T04:19:05;8.10;;;2.80;;
62863;SDS011;48954;59.950;11.014;2024-03-08T04:21:35;6.80;;;2.40;;
62863;SDS011;48954;59.950;11.014;2024-03-08T04:24:05;4.80;;;2.10;;
62863;SDS011;48954;59.950;11.014;2024-03-08T04:26:38;5.90;;;3.30;;
62863;SDS011;48954;59.950;11.014;2024-03-08T04:29:05;7.10;;;2.90;;
62863;SDS011;48954;59.950;11.014;2024-03-08T04:31:32;6.90;;;2.90;;
62863;SDS011;48954;59.950;11.014;2024-03-08T04:34:03;9.30;;;2.70;;
62863;SDS011;48954;59.950;11.014;2024-03-08T04:36:43;6.10;;;2.80;;
62863;SDS011;48954;59.950;11.014;2024-03-08T04:39:14;7.10;;;3.20;;
62863;SDS011;48954;59.950;11.014;2024-03-08T04:41:41;5.50;;;2.40;;
62863;SDS011;48954;59.950;11.014;2024-03-08T04:44:08;6.90;;;3.00;;
62863;SDS011;48954;59.950;11.014;2024-03-08T04:46:37;5.90;;;2.60;;
62863;SDS011;48954;59.950;11.014;2024-03-08T04:49:04;6.10;;;2.50;;
62863;SDS011;48954;59.950;11.014;2024-03-08T04:51:31;7.20;;;3.00;;
62863;SDS011;48954;59.950;11.014;2024-03-08T04:54:00;7.90;;;3.10;;
62863;SDS011;48954;59.950;11.014;2024-03-08T04:56:27;6.60;;;2.60;;
62863;SDS011;48954;59.950;11.014;2024-03-08T04:59:05;6.10;;;2.60;;
62863;SDS011;48954;59.950;11.014;2024-03-08T05:01:32;6.70;;;2.60;;
62863;SDS011;48954;59.950;11.014;2024-03-08T05:04:03;5.10;;;2.30;;
62863;SDS011;48954;59.950;11.014;2024-03-08T05:06:32;7.80;;;2.60;;
62863;SDS011;48954;59.950;11.014;2024-03-08T05:08:59;7.70;;;2.90;;
62863;SDS011;48954;59.950;11.014;2024-03-08T05:11:25;10.20;;;3.20;;
62863;SDS011;48954;59.950;11.014;2024-03-08T05:13:52;9.00;;;3.90;;
62863;SDS011;48954;59.950;11.014;2024-03-08T05:16:19;10.80;;;4.30;;
62863;SDS011;48954;59.950;11.014;2024-03-08T05:18:48;12.20;;;5.00;;
62863;SDS011;48954;59.950;11.014;2024-03-08T05:21:19;7.40;;;3.70;;
62863;SDS011;48954;59.950;11.014;2024-03-08T05:24:00;9.20;;;4.10;;
62863;SDS011;48954;59.950;11.014;2024-03-08T05:26:29;11.30;;;3.60;;
62863;SDS011;48954;59.950;11.014;2024-03-08T05:28:58;7.90;;;3.20;;
62863;SDS011;48954;59.950;11.014;2024-03-08T05:31:43;7.20;;;2.80;;
62863;SDS011;48954;59.950;11.014;2024-03-08T05:34:13;7.90;;;3.20;;
62863;SDS011;48954;59.950;11.014;2024-03-08T05:36:43;8.50;;;2.60;;
62863;SDS011;48954;59.950;11.014;2024-03-08T05:39:14;4.70;;;2.50;;
62863;SDS011;48954;59.950;11.014;2024-03-08T05:41:42;7.60;;;2.90;;
62863;SDS011;48954;59.950;11.014;2024-03-08T05:44:23;7.40;;;3.00;;
62863;SDS011;48954;59.950;11.014;2024-03-08T05:46:56;9.30;;;4.30;;
62863;SDS011;48954;59.950;11.014;2024-03-08T05:49:27;10.70;;;3.50;;
62863;SDS011;48954;59.950;11.014;2024-03-08T05:51:54;8.10;;;3.80;;
62863;SDS011;48954;59.950;11.014;2024-03-08T05:54:22;10.50;;;4.10;;
62863;SDS011;48954;59.950;11.014;2024-03-08T05:56:52;7.60;;;3.30;;
62863;SDS011;48954;59.950;11.014;2024-03-08T05:59:20;11.00;;;3.40;;
62863;SDS011;48954;59.950;11.014;2024-03-08T06:02:00;7.30;;;2.90;;
62863;SDS011;48954;59.950;11.014;2024-03-08T06:04:41;5.10;;;2.20;;
62863;SDS011;48954;59.950;11.014;2024-03-08T06:07:14;8.70;;;2.40;;
62863;SDS011;48954;59.950;11.014;2024-03-08T06:09:43;5.40;;;3.10;;
62863;SDS011;48954;59.950;11.014;2024-03-08T06:12:09;5.70;;;2.90;;
62863;SDS011;48954;59.950;11.014;2024-03-08T06:14:36;7.80;;;3.10;;
62863;SDS011;48954;59.950;11.014;2024-03-08T06:17:04;8.20;;;3.80;;
62863;SDS011;48954;59.950;11.014;2024-03-08T06:19:35;12.80;;;3.60;;
62863;SDS011;48954;59.950;11.014;2024-03-08T06:22:23;6.90;;;2.90;;
62863;SDS011;48954;59.950;11.014;2024-03-08T06:25:04;6.70;;;2.80;;
62863;SDS011;48954;59.950;11.014;2024-03-08T06:27:48;9.10;;;4.20;;
62863;SDS011;48954;59.950;11.014;2024-03-08T06:30:16;8.30;;;3.50;;
62863;SDS011;48954;59.950;11.014;2024-03-08T06:32:53;8.30;;;3.90;;
62863;SDS011;48954;59.950;11.014;2024-03-08T06:35:22;17.00;;;4.60;;
62863;SDS011;48954;59.950;11.014;2024-03-08T06:38:06;12.20;;;4.40;;
62863;SDS011;48954;59.950;11.014;2024-03-08T06:40:48;9.90;;;3.80;;
62863;SDS011;48954;59.950;11.014;2024-03-08T06:43:15;15.00;;;5.30;;
62863;SDS011;48954;59.950;11.014;2024-03-08T06:46:15;8.30;;;3.70;;
62863;SDS011;48954;59.950;11.014;2024-03-08T06:48:49;8.80;;;3.90;;
62863;SDS011;48954;59.950;11.014;2024-03-08T06:51:18;7.80;;;2.50;;
62863;SDS011;48954;59.950;11.014;2024-03-08T06:53:47;8.40;;;3.70;;
62863;SDS011;48954;59.950;11.014;2024-03-08T06:56:14;7.80;;;4.00;;
62863;SDS011;48954;59.950;11.014;2024-03-08T06:58:55;9.30;;;4.50;;
62863;SDS011;48954;59.950;11.014;2024-03-08T07:01:31;9.50;;;2.70;;
62863;SDS011;48954;59.950;11.014;2024-03-08T07:06:24;6.00;;;2.70;;
62863;SDS011;48954;59.950;11.014;2024-03-08T07:08:50;12.60;;;4.40;;
62863;SDS011;48954;59.950;11.014;2024-03-08T07:11:17;9.80;;;3.60;;
62863;SDS011;48954;59.950;11.014;2024-03-08T07:13:45;7.40;;;2.60;;
62863;SDS011;48954;59.950;11.014;2024-03-08T07:16:17;14.90;;;3.70;;
62863;SDS011;48954;59.950;11.014;2024-03-08T07:18:43;11.90;;;4.10;;
62863;SDS011;48954;59.950;11.014;2024-03-08T07:21:09;8.60;;;3.30;;
62863;SDS011;48954;59.950;11.014;2024-03-08T07:23:37;9.50;;;2.90;;
62863;SDS011;48954;59.950;11.014;2024-03-08T07:26:03;8.80;;;3.20;;
62863;SDS011;48954;59.950;11.014;2024-03-08T07:28:32;9.10;;;4.20;;
62863;SDS011;48954;59.950;11.014;2024-03-08T07:30:58;11.40;;;3.50;;
62863;SDS011;48954;59.950;11.014;2024-03-08T07:33:28;8.00;;;3.20;;
62863;SDS011;48954;59.950;11.014;2024-03-08T07:36:00;8.10;;;3.50;;
62863;SDS011;48954;59.950;11.014;2024-03-08T07:38:27;9.40;;;3.30;;
62863;SDS011;48954;59.950;11.014;2024-03-08T07:41:03;16.70;;;3.40;;
62863;SDS011;48954;59.950;11.014;2024-03-08T07:43:38;7.40;;;2.60;;
62863;SDS011;48954;59.950;11.014;2024-03-08T07:46:14;9.50;;;3.60;;
62863;SDS011;48954;59.950;11.014;2024-03-08T07:48:49;8.40;;;3.80;;
62863;SDS011;48954;59.950;11.014;2024-03-08T07:51:17;7.50;;;2.70;;
62863;SDS011;48954;59.950;11.014;2024-03-08T07:53:56;10.60;;;3.60;;
62863;SDS011;48954;59.950;11.014;2024-03-08T07:56:35;7.90;;;3.80;;
62863;SDS011;48954;59.950;11.014;2024-03-08T07:59:05;8.80;;;3.50;;
62863;SDS011;48954;59.950;11.014;2024-03-08T08:01:37;7.80;;;2.80;;
62863;SDS011;48954;59.950;11.014;2024-03-08T08:04:07;7.90;;;3.30;;
62863;SDS011;48954;59.950;11.014;2024-03-08T08:06:34;13.70;;;4.50;;
62863;SDS011;48954;59.950;11.014;2024-03-08T08:09:02;11.00;;;3.90;;
62863;SDS011;48954;59.950;11.014;2024-03-08T08:11:30;10.70;;;4.40;;
62863;SDS011;48954;59.950;11.014;2024-03-08T08:13:57;10.80;;;4.40;;
62863;SDS011;48954;59.950;11.014;2024-03-08T08:16:45;12.10;;;4.30;;
62863;SDS011;48954;59.950;11.014;2024-03-08T08:19:15;17.30;;;5.20;;
62863;SDS011;48954;59.950;11.014;2024-03-08T08:21:46;9.40;;;4.00;;
62863;SDS011;48954;59.950;11.014;2024-03-08T08:24:12;11.10;;;5.00;;
62863;SDS011;48954;59.950;11.014;2024-03-08T08:26:39;12.90;;;5.10;;
62863;SDS011;48954;59.950;11.014;2024-03-08T08:29:07;8.00;;;4.40;;
62863;SDS011;48954;59.950;11.014;2024-03-08T08:31:33;13.20;;;5.00;;
62863;SDS011;48954;59.950;11.014;2024-03-08T08:34:00;12.10;;;4.20;;
62863;SDS011;48954;59.950;11.014;2024-03-08T08:36:28;12.20;;;4.80;;
62863;SDS011;48954;59.950;11.014;2024-03-08T08:38:56;10.10;;;4.40;;
62863;SDS011;48954;59.950;11.014;2024-03-08T08:41:23;14.50;;;4.60;;
62863;SDS011;48954;59.950;11.014;2024-03-08T08:43:52;16.60;;;5.20;;
62863;SDS011;48954;59.950;11.014;2024-03-08T08:46:18;8.90;;;4.40;;
62863;SDS011;48954;59.950;11.014;2024-03-08T08:48:44;11.60;;;4.50;;
62863;SDS011;48954;59.950;11.014;2024-03-08T08:51:12;15.50;;;5.10;;
62863;SDS011;48954;59.950;11.014;2024-03-08T08:53:38;10.00;;;4.70;;
62863;SDS011;48954;59.950;11.014;2024-03-08T08:56:20;12.70;;;4.60;;
62863;SDS011;48954;59.950;11.014;2024-03-08T08:58:52;12.40;;;4.70;;
62863;SDS011;48954;59.950;11.014;2024-03-08T09:01:21;10.20;;;4.70;;
62863;SDS011;48954;59.950;11.014;2024-03-08T09:03:51;18.00;;;5.00;;
62863;SDS011;48954;59.950;11.014;2024-03-08T09:06:22;12.20;;;4.70;;
62863;SDS011;48954;59.950;11.014;2024-03-08T09:08:57;10.30;;;4.90;;
62863;SDS011;48954;59.950;11.014;2024-03-08T09:11:24;10.00;;;4.80;;
62863;SDS011;48954;59.950;11.014;2024-03-08T09:13:50;12.90;;;5.20;;
62863;SDS011;48954;59.950;11.014;2024-03-08T09:16:18;8.90;;;3.90;;
62863;SDS011;48954;59.950;11.014;2024-03-08T09:18:44;13.00;;;5.10;;
62863;SDS011;48954;59.950;11.014;2024-03-08T09:21:29;11.50;;;5.10;;
62863;SDS011;48954;59.950;11.014;2024-03-08T09:23:55;9.50;;;4.40;;
62863;SDS011;48954;59.950;11.014;2024-03-08T09:26:21;12.20;;;4.50;;
62863;SDS011;48954;59.950;11.014;2024-03-08T09:28:48;8.70;;;4.10;;
62863;SDS011;48954;59.950;11.014;2024-03-08T09:31:14;21.90;;;5.70;;
62863;SDS011;48954;59.950;11.014;2024-03-08T09:33:41;13.10;;;4.30;;
62863;SDS011;48954;59.950;11.014;2024-03-08T09:36:08;18.10;;;5.40;;
62863;SDS011;48954;59.950;11.014;2024-03-08T09:38:34;10.70;;;4.80;;
62863;SDS011;48954;59.950;11.014;2024-03-08T09:41:03;16.80;;;5.60;;
62863;SDS011;48954;59.950;11.014;2024-03-08T09:43:29;9.70;;;4.50;;
62863;SDS011;48954;59.950;11.014;2024-03-08T09:45:55;8.30;;;4.90;;
62863;SDS011;48954;59.950;11.014;2024-03-08T09:48:23;7.70;;;4.10;;
62863;SDS011;48954;59.950;11.014;2024-03-08T09:50:51;9.00;;;4.40;;
62863;SDS011;48954;59.950;11.014;2024-03-08T09:53:18;12.60;;;4.90;;
62863;SDS011;48954;59.950;11.014;2024-03-08T09:55:44;8.90;;;4.70;;
62863;SDS011;48954;59.950;11.014;2024-03-08T09:58:13;8.60;;;4.20;;
62863;SDS011;48954;59.950;11.014;2024-03-08T10:00:40;12.10;;;4.60;;
62863;SDS011;48954;59.950;11.014;2024-03-08T10:03:09;14.90;;;5.00;;
62863;SDS011;48954;59.950;11.014;2024-03-08T10:05:38;11.60;;;5.00;;
62863;SDS011;48954;59.950;11.014;2024-03-08T10:08:07;9.20;;;4.60;;
62863;SDS011;48954;59.950;11.014;2024-03-08T10:10:34;11.20;;;5.10;;
62863;SDS011;48954;59.950;11.014;2024-03-08T10:13:01;11.40;;;4.80;;
62863;SDS011;48954;59.950;11.014;2024-03-08T10:15:27;14.80;;;4.70;;
62863;SDS011;48954;59.950;11.014;2024-03-08T10:17:56;11.40;;;4.80;;
62863;SDS011;48954;59.950;11.014;2024-03-08T10:20:22;10.40;;;4.60;;
62863;SDS011;48954;59.950;11.014;2024-03-08T10:22:48;9.10;;;4.70;;
62863;SDS011;48954;59.950;11.014;2024-03-08T10:25:14;20.50;;;5.40;;
62863;SDS011;48954;59.950;11.014;2024-03-08T10:27:40;8.60;;;4.00;;
62863;SDS011;48954;59.950;11.014;2024-03-08T10:30:11;10.00;;;4.40;;
62863;SDS011;48954;59.950;11.014;2024-03-08T10:32:39;9.20;;;4.60;;
62863;SDS011;48954;59.950;11.014;2024-03-08T10:35:09;11.00;;;4.60;;
62863;SDS011;48954;59.950;11.014;2024-03-08T10:37:38;10.80;;;3.80;;
62863;SDS011;48954;59.950;11.014;2024-03-08T10:40:14;10.90;;;4.20;;
62863;SDS011;48954;59.950;11.014;2024-03-08T10:45:36;6.00;;;3.70;;
62863;SDS011;48954;59.950;11.014;2024-03-08T10:50:55;7.30;;;3.80;;
62863;SDS011;48954;59.950;11.014;2024-03-08T10:53:22;7.20;;;3.40;;
62863;SDS011;48954;59.950;11.014;2024-03-08T10:55:49;8.00;;;3.30;;
62863;SDS011;48954;59.950;11.014;2024-03-08T10:58:15;7.40;;;4.10;;
62863;SDS011;48954;59.950;11.014;2024-03-08T11:00:44;7.40;;;3.80;;
62863;SDS011;48954;59.950;11.014;2024-03-08T11:06:15;11.70;;;3.40;;
62863;SDS011;48954;59.950;11.014;2024-03-08T11:08:42;5.60;;;2.80;;
62863;SDS011;48954;59.950;11.014;2024-03-08T11:11:25;11.90;;;3.10;;
62863;SDS011;48954;59.950;11.014;2024-03-08T11:13:57;5.00;;;2.80;;
62863;SDS011;48954;59.950;11.014;2024-03-08T11:21:43;5.50;;;2.70;;
62863;SDS011;48954;59.950;11.014;2024-03-08T11:24:12;5.50;;;2.70;;
62863;SDS011;48954;59.950;11.014;2024-03-08T11:26:39;7.20;;;2.90;;
62863;SDS011;48954;59.950;11.014;2024-03-08T11:32:04;5.40;;;2.80;;
62863;SDS011;48954;59.950;11.014;2024-03-08T11:34:33;4.60;;;2.40;;
62863;SDS011;48954;59.950;11.014;2024-03-08T11:36:59;7.10;;;3.00;;
62863;SDS011;48954;59.950;11.014;2024-03-08T11:39:28;7.40;;;3.30;;
62863;SDS011;48954;59.950;11.014;2024-03-08T11:42:00;5.80;;;2.40;;
62863;SDS011;48954;59.950;11.014;2024-03-08T11:44:26;5.70;;;2.70;;
62863;SDS011;48954;59.950;11.014;2024-03-08T11:46:54;5.70;;;2.70;;
62863;SDS011;48954;59.950;11.014;2024-03-08T11:49:21;5.40;;;2.70;;
62863;SDS011;48954;59.950;11.014;2024-03-08T11:51:49;9.80;;;2.70;;
62863;SDS011;48954;59.950;11.014;2024-03-08T11:54:19;4.90;;;2.30;;
62863;SDS011;48954;59.950;11.014;2024-03-08T11:56:45;7.20;;;2.60;;
62863;SDS011;48954;59.950;11.014;2024-03-08T11:59:12;9.50;;;2.80;;
62863;SDS011;48954;59.950;11.014;2024-03-08T12:01:40;4.70;;;2.30;;
62863;SDS011;48954;59.950;11.014;2024-03-08T12:04:06;9.40;;;3.00;;
62863;SDS011;48954;59.950;11.014;2024-03-08T12:06:37;3.70;;;2.00;;
62863;SDS011;48954;59.950;11.014;2024-03-08T12:09:05;5.10;;;2.60;;
62863;SDS011;48954;59.950;11.014;2024-03-08T12:11:34;3.40;;;2.20;;
62863;SDS011;48954;59.950;11.014;2024-03-08T12:14:00;6.60;;;2.40;;
62863;SDS011;48954;59.950;11.014;2024-03-08T12:16:26;5.40;;;2.40;;
62863;SDS011;48954;59.950;11.014;2024-03-08T12:18:52;4.10;;;2.60;;
62863;SDS011;48954;59.950;11.014;2024-03-08T12:22:14;4.70;;;2.50;;
62863;SDS011;48954;59.950;11.014;2024-03-08T12:25:27;4.50;;;2.20;;
62863;SDS011;48954;59.950;11.014;2024-03-08T12:27:56;4.90;;;2.40;;
62863;SDS011;48954;59.950;11.014;2024-03-08T12:32:52;7.20;;;2.70;;
62863;SDS011;48954;59.950;11.014;2024-03-08T12:35:29;4.40;;;2.40;;
62863;SDS011;48954;59.950;11.014;2024-03-08T12:38:21;5.00;;;2.20;;
62863;SDS011;48954;59.950;11.014;2024-03-08T12:40:49;21.40;;;3.70;;
62863;SDS011;48954;59.950;11.014;2024-03-08T12:43:52;6.30;;;2.50;;
62863;SDS011;48954;59.950;11.014;2024-03-08T12:46:22;7.60;;;3.10;;
62863;SDS011;48954;59.950;11.014;2024-03-08T12:48:51;6.50;;;2.60;;
62863;SDS011;48954;59.950;11.014;2024-03-08T12:51:18;6.50;;;2.20;;
62863;SDS011;48954;59.950;11.014;2024-03-08T12:53:44;5.30;;;2.30;;
62863;SDS011;48954;59.950;11.014;2024-03-08T12:56:33;6.20;;;2.40;;
62863;SDS011;48954;59.950;11.014;2024-03-08T12:59:00;3.50;;;2.30;;
62863;SDS011;48954;59.950;11.014;2024-03-08T13:01:27;5.20;;;2.20;;
62863;SDS011;48954;59.950;11.014;2024-03-08T13:03:53;3.70;;;2.40;;
62863;SDS011;48954;59.950;11.014;2024-03-08T13:06:20;3.60;;;1.90;;
62863;SDS011;48954;59.950;11.014;2024-03-08T13:08:48;3.30;;;2.20;;
62863;SDS011;48954;59.950;11.014;2024-03-08T13:11:14;6.90;;;2.30;;
62863;SDS011;48954;59.950;11.014;2024-03-08T13:16:36;6.30;;;2.50;;
62863;SDS011;48954;59.950;11.014;2024-03-08T13:19:11;8.00;;;3.40;;
62863;SDS011;48954;59.950;11.014;2024-03-08T13:21:37;7.90;;;2.50;;
62863;SDS011;48954;59.950;11.014;2024-03-08T13:24:13;4.40;;;2.40;;
62863;SDS011;48954;59.950;11.014;2024-03-08T13:26:54;9.50;;;2.90;;
62863;SDS011;48954;59.950;11.014;2024-03-08T13:29:20;5.20;;;2.70;;
62863;SDS011;48954;59.950;11.014;2024-03-08T13:31:47;4.90;;;2.30;;
62863;SDS011;48954;59.950;11.014;2024-03-08T13:34:13;5.70;;;2.80;;
62863;SDS011;48954;59.950;11.014;2024-03-08T13:36:41;9.00;;;2.60;;
62863;SDS011;48954;59.950;11.014;2024-03-08T13:39:12;3.30;;;1.70;;
62863;SDS011;48954;59.950;11.014;2024-03-08T13:41:38;6.00;;;2.30;;
62863;SDS011;48954;59.950;11.014;2024-03-08T13:44:06;4.60;;;2.10;;
62863;SDS011;48954;59.950;11.014;2024-03-08T13:46:34;7.10;;;2.90;;
62863;SDS011;48954;59.950;11.014;2024-03-08T13:49:03;4.40;;;2.20;;
62863;SDS011;48954;59.950;11.014;2024-03-08T13:51:38;3.10;;;2.00;;
62863;SDS011;48954;59.950;11.014;2024-03-08T13:54:19;6.20;;;1.90;;
62863;SDS011;48954;59.950;11.014;2024-03-08T13:56:50;3.20;;;1.90;;
62863;SDS011;48954;59.950;11.014;2024-03-08T13:59:16;4.20;;;2.10;;
62863;SDS011;48954;59.950;11.014;2024-03-08T14:01:42;3.30;;;1.50;;
62863;SDS011;48954;59.950;11.014;2024-03-08T14:04:09;6.30;;;2.60;;
62863;SDS011;48954;59.950;11.014;2024-03-08T14:06:35;5.80;;;1.60;;
62863;SDS011;48954;59.950;11.014;2024-03-08T14:09:00;7.70;;;2.30;;
62863;SDS011;48954;59.950;11.014;2024-03-08T14:11:27;4.50;;;1.60;;
62863;SDS011;48954;59.950;11.014;2024-03-08T14:13:53;3.80;;;1.80;;
62863;SDS011;48954;59.950;11.014;2024-03-08T14:16:19;2.70;;;1.50;;
62863;SDS011;48954;59.950;11.014;2024-03-08T14:18:45;6.70;;;2.30;;
62863;SDS011;48954;59.950;11.014;2024-03-08T14:21:11;6.70;;;2.00;;
62863;SDS011;48954;59.950;11.014;2024-03-08T14:23:37;5.70;;;1.70;;
62863;SDS011;48954;59.950;11.014;2024-03-08T14:26:03;4.80;;;1.80;;
62863;SDS011;48954;59.950;11.014;2024-03-08T14:28:29;3.40;;;1.50;;
62863;SDS011;48954;59.950;11.014;2024-03-08T14:31:00;3.40;;;1.80;;
62863;SDS011;48954;59.950;11.014;2024-03-08T14:33:25;4.00;;;1.80;;
62863;SDS011;48954;59.950;11.014;2024-03-08T14:35:52;4.80;;;1.80;;
62863;SDS011;48954;59.950;11.014;2024-03-08T14:38:18;4.80;;;1.80;;
62863;SDS011;48954;59.950;11.014;2024-03-08T14:40:50;4.70;;;2.00;;
62863;SDS011;48954;59.950;11.014;2024-03-08T14:43:16;3.60;;;1.90;;
62863;SDS011;48954;59.950;11.014;2024-03-08T14:45:42;4.60;;;1.80;;
62863;SDS011;48954;59.950;11.014;2024-03-08T14:48:10;4.60;;;1.80;;
62863;SDS011;48954;59.950;11.014;2024-03-08T14:50:36;5.60;;;2.10;;
62863;SDS011;48954;59.950;11.014;2024-03-08T14:53:02;6.20;;;2.20;;
62863;SDS011;48954;59.950;11.014;2024-03-08T14:55:28;3.00;;;2.00;;
62863;SDS011;48954;59.950;11.014;2024-03-08T14:57:54;4.80;;;2.30;;
62863;SDS011;48954;59.950;11.014;2024-03-08T15:00:22;7.10;;;2.30;;
62863;SDS011;48954;59.950;11.014;2024-03-08T15:02:48;4.10;;;1.90;;
62863;SDS011;48954;59.950;11.014;2024-03-08T15:05:17;7.90;;;2.20;;
62863;SDS011;48954;59.950;11.014;2024-03-08T15:07:45;8.00;;;2.40;;
62863;SDS011;48954;59.950;11.014;2024-03-08T15:10:11;3.20;;;1.90;;
62863;SDS011;48954;59.950;11.014;2024-03-08T15:12:37;6.10;;;2.00;;
62863;SDS011;48954;59.950;11.014;2024-03-08T15:15:07;4.00;;;2.10;;
62863;SDS011;48954;59.950;11.014;2024-03-08T15:17:33;9.10;;;4.40;;
62863;SDS011;48954;59.950;11.014;2024-03-08T15:20:00;6.30;;;2.70;;
62863;SDS011;48954;59.950;11.014;2024-03-08T15:22:27;6.10;;;2.60;;
62863;SDS011;48954;59.950;11.014;2024-03-08T15:24:53;7.50;;;4.50;;
62863;SDS011;48954;59.950;11.014;2024-03-08T15:27:19;6.80;;;4.10;;
62863;SDS011;48954;59.950;11.014;2024-03-08T15:29:47;6.80;;;3.50;;